Time;durP1;ratioP1;P1;durP2;ratioP2;P2;SDS_P1;SDS_P2;PMS_P1;PMS_P2;Temp;Humidity;BMP_temperature;BMP_pressure;BME280_temperature;BME280_humidity;BME280_pressure;Samples;Min_cycle;Max_cycle;Signal;HPM_P1;HPM_P2
2022/11/12 00:01:11;;;;;;;30.60;28.42;;;;;;;11.70;60.66;103010.06;5052365;28;20397;-75
2022/11/12 00:03:37;;;;;;;29.08;26.95;;;;;;;11.68;61.09;103009.41;5050197;28;20044;-77
2022/11/12 00:06:02;;;;;;;29.95;27.83;;;;;;;11.66;60.69;103003.34;5051505;28;20038;-75
2022/11/12 00:08:28;;;;;;;31.27;29.08;;;;;;;11.66;60.86;103003.34;5049947;28;20445;-76
2022/11/12 00:10:53;;;;;;;28.50;26.63;;;;;;;11.66;60.98;103005.22;5048906;28;20029;-75
2022/11/12 00:13:18;;;;;;;29.23;27.20;;;;;;;11.63;60.87;103008.31;5048445;28;20037;-77
2022/11/12 00:15:45;;;;;;;29.27;27.23;;;;;;;11.62;60.80;103012.91;5048029;28;20029;-75
2022/11/12 00:18:10;;;;;;;28.88;26.88;;;;;;;11.58;60.82;103014.31;5047590;28;20126;-74
2022/11/12 00:20:36;;;;;;;32.00;29.40;;;;;;;11.57;60.94;103015.34;5042001;28;20227;-78
2022/11/12 00:23:01;;;;;;;28.65;26.50;;;;;;;11.57;60.88;103012.66;5049382;28;20044;-76
2022/11/12 00:25:27;;;;;;;30.27;27.85;;;;;;;11.56;60.80;103012.81;5052351;28;20055;-75
2022/11/12 00:27:53;;;;;;;27.65;25.90;;;;;;;11.54;60.80;103015.75;5050363;28;20057;-75
2022/11/12 00:30:18;;;;;;;30.70;28.60;;;;;;;11.54;60.71;103017.59;5034902;28;20037;-80
2022/11/12 00:32:43;;;;;;;27.48;25.55;;;;;;;11.52;60.77;103023.22;5033086;28;20056;-76
2022/11/12 00:35:11;;;;;;;30.20;27.95;;;;;;;11.51;60.84;103015.28;5045719;28;20030;-74
2022/11/12 00:37:36;;;;;;;30.48;28.25;;;;;;;11.48;60.94;103011.09;5034286;28;20453;-77
2022/11/12 00:40:01;;;;;;;27.08;25.38;;;;;;;11.46;60.80;103019.41;5052821;28;20125;-76
2022/11/12 00:42:27;;;;;;;29.15;26.38;;;;;;;11.45;60.83;103019.59;5039475;28;20041;-76
2022/11/12 00:44:52;;;;;;;27.02;25.40;;;;;;;11.43;60.78;103019.78;5046001;28;20037;-76
2022/11/12 00:47:18;;;;;;;29.45;27.13;;;;;;;11.42;60.71;103023.53;5033247;28;20033;-78
2022/11/12 00:49:43;;;;;;;29.15;27.30;;;;;;;11.40;60.86;103022.88;5039628;28;20033;-75
2022/11/12 00:52:08;;;;;;;28.45;26.45;;;;;;;11.39;60.73;103033.88;5033034;28;20494;-76
2022/11/12 00:54:34;;;;;;;30.88;28.45;;;;;;;11.37;60.80;103022.44;5042208;28;20033;-76
2022/11/12 00:56:59;;;;;;;26.90;25.10;;;;;;;11.35;60.77;103022.63;5042051;28;20546;-75
2022/11/12 00:59:25;;;;;;;28.70;26.30;;;;;;;11.33;60.86;103024.66;5037568;28;20072;-76
2022/11/12 01:01:50;;;;;;;27.25;25.45;;;;;;;11.32;60.80;103030.28;5032901;28;20435;-76
2022/11/12 01:04:15;;;;;;;27.52;25.88;;;;;;;11.31;60.78;103025.91;5036567;28;20045;-77
2022/11/12 01:06:41;;;;;;;29.17;27.13;;;;;;;11.30;60.75;103022.34;5034213;28;20037;-74
2022/11/12 01:09:07;;;;;;;28.23;26.25;;;;;;;11.29;60.59;103027.94;5033014;28;20405;-74
2022/11/12 01:11:33;;;;;;;28.02;26.02;;;;;;;11.27;60.69;103023.56;5047477;28;20033;-73
2022/11/12 01:14:02;;;;;;;27.52;25.63;;;;;;;11.25;60.77;103025.63;5032638;28;20477;-74
2022/11/12 01:16:31;;;;;;;28.02;26.17;;;;;;;11.23;60.84;103033.09;5033626;28;20076;-75
2022/11/12 01:18:58;;;;;;;;;;;;;;;11.22;60.62;103017.06;5033098;28;20461;-75
2022/11/12 01:21:26;;;;;;;28.73;26.42;;;;;;;11.20;60.69;103024.53;5047726;28;20345;-75
2022/11/12 01:23:52;;;;;;;26.33;24.13;;;;;;;11.17;60.65;103025.75;5033322;28;20065;-75
2022/11/12 01:26:19;;;;;;;27.90;26.10;;;;;;;11.17;60.76;103022.22;5046085;28;20064;-75
2022/11/12 01:28:45;;;;;;;26.63;24.85;;;;;;;11.15;60.71;103014.28;5034118;28;20029;-75
2022/11/12 01:31:22;;;;;;;27.17;25.48;;;;;;;11.14;60.74;103018.03;5041632;28;20041;-75
2022/11/12 01:33:51;;;;;;;28.50;26.73;;;;;;;11.12;60.87;103013.84;5049720;28;20397;-75
2022/11/12 01:36:17;;;;;;;26.08;24.38;;;;;;;11.11;60.81;103015.69;5042674;28;20080;-75
2022/11/12 01:38:44;;;;;;;28.52;26.33;;;;;;;11.10;60.62;103013.19;5044755;28;20040;-76
2022/11/12 01:41:13;;;;;;;30.50;28.52;;;;;;;11.08;60.63;103017.94;5033537;28;20041;-76
2022/11/12 01:43:39;;;;;;;28.58;26.10;;;;;;;11.07;60.72;103019.81;5030482;28;20029;-76
2022/11/12 01:46:13;;;;;;;29.00;26.70;;;;;;;11.05;60.62;103008.34;5040890;28;20040;-76
2022/11/12 01:48:46;;;;;;;30.58;28.20;;;;;;;11.04;60.79;103003.97;5041433;28;20037;-76
2022/11/12 01:51:13;;;;;;;27.70;25.67;;;;;;;11.02;60.84;103004.16;5032524;28;20052;-76
2022/11/12 01:53:44;;;;;;;29.10;27.10;;;;;;;11.02;60.76;103000.63;5040951;28;20033;-77
2022/11/12 01:56:11;;;;;;;26.98;24.92;;;;;;;10.99;60.68;102995.59;5035682;28;20044;-75
2022/11/12 01:58:38;;;;;;;28.42;26.58;;;;;;;11.00;60.78;103008.06;5044089;28;20087;-76
2022/11/12 02:01:03;;;;;;;28.15;26.02;;;;;;;10.98;60.65;102993.91;5031485;28;20030;-76
2022/11/12 02:03:30;;;;;;;27.95;25.98;;;;;;;10.97;60.57;102994.94;5046603;28;20090;-77
2022/11/12 02:06:01;;;;;;;28.90;26.90;;;;;;;10.95;60.61;102992.41;5031864;28;20045;-76
2022/11/12 02:08:28;;;;;;;29.52;27.40;;;;;;;10.94;60.70;102992.63;5049276;28;20032;-76
2022/11/12 02:10:54;;;;;;;27.63;25.38;;;;;;;10.92;60.60;102995.50;5031214;28;20033;-76
2022/11/12 02:16:06;;;;;;;28.23;26.13;;;;;;;10.90;60.64;102994.03;5031548;28;20095;-75
2022/11/12 02:18:32;;;;;;;27.90;25.95;;;;;;;10.89;60.68;102989.66;5036174;28;20389;-76
2022/11/12 02:21:04;;;;;;;28.33;26.08;;;;;;;10.88;60.60;102998.78;5047243;28;20534;-75
2022/11/12 02:23:31;;;;;;;27.25;25.25;;;;;;;10.86;60.62;102998.13;5035617;28;20033;-76
2022/11/12 02:25:58;;;;;;;27.48;25.42;;;;;;;10.85;60.72;103004.56;5030426;28;20044;-74
2022/11/12 02:28:24;;;;;;;27.08;24.88;;;;;;;10.84;60.47;103003.72;5037205;28;20033;-77
2022/11/12 02:30:49;;;;;;;28.08;25.88;;;;;;;10.83;60.62;103005.59;5039318;28;20370;-75
2022/11/12 02:33:15;;;;;;;26.70;24.85;;;;;;;10.81;60.55;102998.72;5031423;28;20659;-76
2022/11/12 02:35:40;;;;;;;30.38;27.98;;;;;;;10.80;60.46;103000.56;5031490;28;20038;-76
2022/11/12 02:38:07;;;;;;;27.50;25.52;;;;;;;10.78;60.71;102999.91;5043376;28;20509;-76
2022/11/12 02:40:33;;;;;;;26.30;24.50;;;;;;;10.77;60.53;102998.22;5036223;28;20061;-76
2022/11/12 02:42:58;;;;;;;26.45;24.55;;;;;;;10.76;60.51;102999.28;5030901;28;20401;-75
2022/11/12 02:45:24;;;;;;;27.77;25.88;;;;;;;10.75;60.47;103002.16;5031474;28;20033;-75
2022/11/12 02:47:50;;;;;;;28.20;25.92;;;;;;;10.74;60.58;102992.38;5038601;28;20116;-76
2022/11/12 02:50:16;;;;;;;26.50;24.88;;;;;;;10.74;60.54;102997.78;5040548;28;20045;-75
2022/11/12 02:52:42;;;;;;;29.10;26.75;;;;;;;10.72;60.55;102997.13;5032288;28;20040;-76
2022/11/12 02:55:09;;;;;;;27.25;24.95;;;;;;;10.70;60.61;102997.31;5050502;28;20033;-75
2022/11/12 02:57:36;;;;;;;28.13;26.25;;;;;;;10.68;60.50;102993.94;5031907;28;20470;-75
2022/11/12 03:00:04;;;;;;;29.80;27.73;;;;;;;10.67;60.60;102991.44;5049171;28;20546;-75
2022/11/12 03:02:30;;;;;;;26.88;25.08;;;;;;;10.67;60.55;102991.44;5045927;28;20040;-75
2022/11/12 03:04:55;;;;;;;27.77;25.70;;;;;;;10.65;60.61;102982.69;5031030;28;20038;-75
2022/11/12 03:07:21;;;;;;;28.15;26.08;;;;;;;10.65;60.49;102985.38;5050776;28;20032;-76
2022/11/12 03:09:46;;;;;;;29.38;27.27;;;;;;;10.63;60.58;102990.97;5047159;28;20044;-76
2022/11/12 03:12:11;;;;;;;26.70;24.83;;;;;;;10.61;60.65;102982.25;5031319;28;20029;-76
2022/11/12 03:14:37;;;;;;;27.27;25.48;;;;;;;10.60;60.17;102991.34;5045203;28;20116;-76
2022/11/12 03:17:05;;;;;;;28.38;26.38;;;;;;;10.58;60.46;102988.00;5031117;28;20065;-76
2022/11/12 03:19:30;;;;;;;26.55;24.92;;;;;;;10.58;60.40;102993.41;5040232;28;20037;-76
2022/11/12 03:21:56;;;;;;;28.17;26.25;;;;;;;10.56;60.56;102990.06;5036533;28;20040;-76
2022/11/12 03:24:21;;;;;;;28.13;25.95;;;;;;;10.55;60.52;102988.38;5040596;28;20080;-75
2022/11/12 03:26:46;;;;;;;29.10;26.75;;;;;;;10.54;60.58;102986.72;5049506;28;20045;-75
2022/11/12 03:29:12;;;;;;;26.27;24.50;;;;;;;10.52;60.48;102981.47;5050428;28;20127;-75
2022/11/12 03:31:37;;;;;;;25.70;24.00;;;;;;;10.52;60.48;102988.75;5052742;28;20041;-76
2022/11/12 03:34:03;;;;;;;26.38;24.67;;;;;;;10.49;60.65;102987.25;5053093;28;20037;-75
2022/11/12 03:36:29;;;;;;;28.00;25.98;;;;;;;10.49;60.50;102991.84;5047935;28;20488;-76
2022/11/12 03:38:55;;;;;;;28.88;26.50;;;;;;;10.47;60.33;102992.00;5040362;28;20037;-75
2022/11/12 03:41:20;;;;;;;26.50;24.38;;;;;;;10.46;60.52;102989.47;5050876;28;20041;-75
2022/11/12 03:43:45;;;;;;;26.70;24.45;;;;;;;10.46;60.41;102992.19;5034043;28;20033;-75
2022/11/12 03:46:11;;;;;;;26.75;24.85;;;;;;;10.44;60.47;102988.84;5038771;28;20082;-75
2022/11/12 03:48:36;;;;;;;26.67;24.73;;;;;;;10.42;60.56;102991.72;5053895;28;20172;-75
2022/11/12 03:51:02;;;;;;;25.85;24.25;;;;;;;10.41;60.61;102998.19;5050912;28;20037;-75
2022/11/12 03:53:27;;;;;;;25.42;23.73;;;;;;;10.40;60.54;102999.19;5043325;28;20033;-75
2022/11/12 03:55:53;;;;;;;27.60;25.70;;;;;;;10.39;60.50;103003.75;5053433;28;20041;-75
2022/11/12 03:58:18;;;;;;;26.35;24.42;;;;;;;10.38;60.43;103004.78;5053475;28;20025;-75
2022/11/12 04:00:44;;;;;;;26.95;25.33;;;;;;;10.37;60.71;103000.41;5052913;28;20415;-76
2022/11/12 04:03:09;;;;;;;26.63;24.58;;;;;;;10.36;60.40;102995.19;5052764;28;20037;-75
2022/11/12 04:08:36;;;;;;;26.50;24.80;;;;;;;10.32;60.53;102992.00;5053531;28;20090;-75
2022/11/12 04:11:07;;;;;;;26.55;24.67;;;;;;;10.32;60.39;102985.78;5053295;28;20073;-75
2022/11/12 04:13:34;;;;;;;26.45;24.73;;;;;;;10.30;60.50;102988.66;5041013;28;20469;-75
2022/11/12 04:21:49;;;;;;;26.38;24.45;;;;;;;10.26;60.31;102986.50;5035295;28;20557;-75
2022/11/12 04:27:14;;;;;;;25.80;23.92;;;;;;;10.23;60.50;102985.00;5033513;28;20048;-76
2022/11/12 04:32:25;;;;;;;24.90;23.25;;;;;;;10.21;60.51;102978.13;5049090;28;20044;-76
2022/11/12 04:34:51;;;;;;;27.17;25.02;;;;;;;10.19;60.42;102981.81;5035861;28;20037;-76
2022/11/12 04:37:16;;;;;;;25.40;23.73;;;;;;;10.19;60.59;102975.59;5043772;28;20087;-76
2022/11/12 04:39:41;;;;;;;26.50;24.52;;;;;;;10.17;60.41;102973.06;5033255;28;20037;-75
2022/11/12 04:45:02;;;;;;;26.02;24.05;;;;;;;10.15;60.42;102958.06;5033275;28;20060;-76
2022/11/12 04:47:34;;;;;;;25.88;24.10;;;;;;;10.14;60.65;102962.63;5057460;28;20033;-75
2022/11/12 04:50:00;;;;;;;26.02;24.05;;;;;;;10.13;60.58;102962.81;5062338;28;20029;-75
2022/11/12 04:52:27;;;;;;;25.00;23.35;;;;;;;10.12;60.50;102955.75;5064663;28;20029;-78
2022/11/12 04:54:53;;;;;;;26.00;24.05;;;;;;;10.11;60.51;102964.88;5071393;28;20041;-79
2022/11/12 04:57:18;;;;;;;25.15;23.45;;;;;;;10.11;60.37;102956.78;5067270;28;20067;-79
2022/11/12 04:59:43;;;;;;;25.30;23.67;;;;;;;10.10;60.67;102957.78;5066672;28;20057;-79
2022/11/12 05:02:09;;;;;;;26.40;24.45;;;;;;;10.10;60.59;102957.78;5065659;28;20040;-79
2022/11/12 05:04:34;;;;;;;26.35;24.25;;;;;;;10.08;60.63;102965.22;5064622;28;20453;-80
2022/11/12 05:07:00;;;;;;;25.48;23.60;;;;;;;10.08;60.47;102952.59;5048161;28;20048;-79
2022/11/12 05:09:28;;;;;;;27.02;24.90;;;;;;;10.06;60.41;102954.63;5050911;28;20037;-79
2022/11/12 05:11:54;;;;;;;26.98;24.83;;;;;;;10.04;60.51;102951.25;5062099;28;20100;-79
2022/11/12 05:14:20;;;;;;;24.25;22.70;;;;;;;10.04;60.50;102950.44;5055918;28;20075;-79
2022/11/12 05:16:46;;;;;;;26.02;24.23;;;;;;;10.02;60.52;102950.59;5040490;28;20033;-79
2022/11/12 05:19:12;;;;;;;24.95;23.05;;;;;;;10.02;60.53;102947.91;5043071;28;20064;-80
2022/11/12 05:24:21;;;;;;;27.27;24.80;;;;;;;10.00;60.40;102957.22;5041692;28;20048;-79
2022/11/12 05:26:47;;;;;;;27.08;24.15;;;;;;;9.99;60.52;102942.06;5036911;28;20061;-80
2022/11/12 05:29:13;;;;;;;23.45;21.95;;;;;;;9.97;60.48;102948.44;5054234;28;20139;-80
2022/11/12 05:31:38;;;;;;;23.85;22.05;;;;;;;9.97;60.41;102942.22;5047935;28;20041;-80
2022/11/12 05:34:04;;;;;;;27.08;24.27;;;;;;;9.94;60.47;102940.72;5053770;28;20037;-80
2022/11/12 05:36:29;;;;;;;22.08;20.70;;;;;;;9.94;60.48;102940.72;5066455;28;20080;-80
2022/11/12 05:38:54;;;;;;;22.20;20.88;;;;;;;9.94;60.40;102945.31;5048518;28;20177;-82
2022/11/12 05:41:20;;;;;;;24.83;22.92;;;;;;;9.94;60.31;102934.50;5036092;28;20116;-80
2022/11/12 05:43:45;;;;;;;24.30;22.48;;;;;;;9.92;60.47;102936.53;5050118;28;20124;-81
2022/11/12 05:46:10;;;;;;;24.75;23.05;;;;;;;9.90;60.53;102936.75;5047676;28;20064;-80
2022/11/12 05:48:36;;;;;;;24.15;22.30;;;;;;;9.90;60.48;102943.97;5034658;28;20041;-80
2022/11/12 05:51:02;;;;;;;26.00;24.10;;;;;;;9.89;60.41;102947.72;5062155;28;20053;-80
2022/11/12 05:53:28;;;;;;;25.08;23.38;;;;;;;9.89;60.45;102945.00;5054150;28;20030;-80
2022/11/12 05:55:53;;;;;;;25.13;23.15;;;;;;;9.88;60.54;102948.75;5047930;28;20033;-82
2022/11/12 05:58:18;;;;;;;23.60;21.92;;;;;;;9.85;60.60;102944.56;5057055;28;20146;-79
2022/11/12 06:00:44;;;;;;;21.95;20.42;;;;;;;9.86;60.55;102951.63;5053989;28;20040;-78
2022/11/12 06:03:11;;;;;;;25.67;23.60;;;;;;;9.85;60.33;102946.41;5057023;28;20033;-78
2022/11/12 06:05:37;;;;;;;25.23;23.42;;;;;;;9.84;60.47;102953.66;5038705;28;20017;-79
2022/11/12 06:08:04;;;;;;;24.92;23.17;;;;;;;9.83;60.45;102957.38;5044060;28;20029;-80
2022/11/12 06:10:33;;;;;;;24.25;22.45;;;;;;;9.82;60.45;102953.00;5046268;28;20029;-80
2022/11/12 06:12:58;;;;;;;23.58;21.92;;;;;;;9.81;60.55;102959.44;5037597;28;20041;-80
2022/11/12 06:15:25;;;;;;;25.35;23.13;;;;;;;9.80;60.48;102957.72;5033221;28;20108;-81
2022/11/12 06:17:54;;;;;;;25.65;23.80;;;;;;;9.79;60.41;102947.13;5033492;28;20373;-80
2022/11/12 06:20:21;;;;;;;23.50;21.70;;;;;;;9.78;60.52;102949.00;5032246;28;20034;-80
2022/11/12 06:22:46;;;;;;;23.27;21.38;;;;;;;9.77;60.48;102943.78;5047123;28;20258;-79
2022/11/12 06:25:12;;;;;;;24.95;23.02;;;;;;;9.75;60.48;102944.81;5050874;28;20488;-79
2022/11/12 06:27:37;;;;;;;26.05;23.92;;;;;;;9.74;60.52;102942.28;5051552;28;20112;-79
2022/11/12 06:30:04;;;;;;;26.85;24.77;;;;;;;9.72;60.57;102942.47;5049815;28;20067;-79
2022/11/12 06:32:30;;;;;;;25.10;23.13;;;;;;;9.71;60.40;102943.50;5040547;28;20096;-79
2022/11/12 06:34:55;;;;;;;23.23;21.65;;;;;;;9.70;60.55;102946.34;5051028;28;20530;-79
2022/11/12 06:37:21;;;;;;;24.27;22.45;;;;;;;9.70;60.54;102946.34;5048016;28;20502;-79
2022/11/12 06:39:47;;;;;;;24.65;22.75;;;;;;;9.69;60.63;102944.69;5038918;28;20038;-78
2022/11/12 06:42:13;;;;;;;23.83;22.08;;;;;;;9.68;60.35;102949.25;5033237;28;20030;-78
2022/11/12 06:44:38;;;;;;;23.48;21.88;;;;;;;9.67;60.55;102944.88;5031976;28;20061;-80
2022/11/12 06:47:04;;;;;;;24.60;22.73;;;;;;;9.67;60.42;102946.72;5045860;28;20156;-80
2022/11/12 06:49:29;;;;;;;22.20;20.77;;;;;;;9.65;60.68;102948.78;5032196;28;20025;-79
2022/11/12 06:51:54;;;;;;;23.10;21.38;;;;;;;9.65;60.46;102951.47;5034786;28;20167;-79
2022/11/12 06:54:20;;;;;;;25.02;23.23;;;;;;;9.64;60.45;102961.44;5038497;28;20026;-80
2022/11/12 06:56:45;;;;;;;24.08;22.08;;;;;;;9.62;60.41;102966.16;5046919;28;20464;-79
2022/11/12 06:59:10;;;;;;;24.08;22.13;;;;;;;9.62;60.53;102965.31;5050894;28;20045;-79
2022/11/12 07:01:36;;;;;;;23.05;21.17;;;;;;;9.60;60.65;102961.97;5049219;28;20045;-80
2022/11/12 07:04:01;;;;;;;22.83;21.27;;;;;;;9.60;60.46;102961.97;5051219;28;20072;-79
2022/11/12 07:06:27;;;;;;;23.02;21.25;;;;;;;9.58;60.54;102959.47;5061216;28;20037;-79
2022/11/12 07:08:52;;;;;;;22.73;21.13;;;;;;;9.58;60.62;102958.63;5054941;28;20060;-81
2022/11/12 07:11:18;;;;;;;24.60;22.90;;;;;;;9.57;60.56;102967.72;5054115;28;20033;-80
2022/11/12 07:13:45;;;;;;;21.85;20.38;;;;;;;9.56;60.45;102969.59;5045195;28;20041;-80
2022/11/12 07:16:12;;;;;;;25.08;23.17;;;;;;;9.55;60.53;102967.94;5035203;28;20037;-79
2022/11/12 07:18:39;;;;;;;22.92;21.42;;;;;;;9.54;60.37;102969.78;5058222;28;20055;-79
2022/11/12 07:21:06;;;;;;;23.55;21.85;;;;;;;9.54;60.44;102969.78;5037325;28;20041;-80
2022/11/12 07:23:34;;;;;;;23.77;22.00;;;;;;;9.53;60.46;102976.19;5039583;28;20040;-80
2022/11/12 07:26:23;;;;;;;22.88;21.27;;;;;;;9.52;60.50;102974.53;5054381;28;20083;-79
2022/11/12 07:28:51;;;;;;;23.75;22.08;;;;;;;9.50;60.57;102971.16;5039891;28;20064;-79
2022/11/12 07:31:18;;;;;;;24.45;22.65;;;;;;;9.49;60.46;102968.66;5040178;28;20393;-79
2022/11/12 07:33:44;;;;;;;23.27;21.27;;;;;;;9.49;60.71;102969.47;5052970;28;20542;-80
2022/11/12 07:36:12;;;;;;;22.55;21.05;;;;;;;9.48;60.50;102966.97;5042249;28;20040;-81
2022/11/12 07:38:39;;;;;;;26.70;24.50;;;;;;;9.51;60.31;102974.69;5046291;28;20376;-87
2022/11/12 07:41:10;;;;;;;23.85;22.15;;;;;;;9.52;60.32;102970.97;5056528;28;20025;-89
2022/11/12 07:43:37;;;;;;;24.73;22.73;;;;;;;9.52;60.45;102979.06;5071903;28;20128;-88
2022/11/12 07:46:04;;;;;;;23.20;21.45;;;;;;;9.51;60.39;102980.09;5043308;28;20046;-89
2022/11/12 07:48:32;;;;;;;24.83;23.02;;;;;;;9.51;60.39;102980.09;5041758;28;20029;-89
2022/11/12 07:51:17;;;;;;;23.65;21.95;;;;;;;9.50;60.32;102981.97;5051193;28;20069;-86
2022/11/12 07:53:44;;;;;;;23.55;21.73;;;;;;;9.50;60.32;102978.44;5054838;28;20040;-88
2022/11/12 07:56:15;;;;;;;24.88;23.17;;;;;;;9.49;60.34;102984.81;5043476;28;20036;-82
2022/11/12 07:58:41;;;;;;;23.42;21.58;;;;;;;9.50;60.39;102994.63;5035615;28;20032;-88
2022/11/12 08:01:26;;;;;;;24.88;23.08;;;;;;;9.49;60.28;102987.53;5050256;28;20049;-85
2022/11/12 08:03:52;;;;;;;23.27;21.42;;;;;;;9.47;60.32;102990.41;5054055;28;20030;-86
2022/11/12 08:06:17;;;;;;;25.73;23.75;;;;;;;9.47;60.18;102995.78;5061712;28;20051;-88
2022/11/12 08:08:42;;;;;;;23.33;21.73;;;;;;;9.48;60.40;102996.66;5054106;28;20048;-86
2022/11/12 08:11:08;;;;;;;24.50;22.67;;;;;;;9.47;60.26;103001.19;5067894;28;20032;-85
2022/11/12 08:13:33;;;;;;;24.13;22.38;;;;;;;9.46;60.25;102996.00;5059798;28;20037;-87
2022/11/12 08:15:59;;;;;;;23.20;21.48;;;;;;;9.46;60.44;103002.22;5037057;28;20034;-87
2022/11/12 08:18:25;;;;;;;22.85;21.17;;;;;;;9.46;60.25;103009.47;5068490;28;20062;-86
2022/11/12 08:20:51;;;;;;;23.55;21.95;;;;;;;9.46;60.34;103001.38;5041967;28;20208;-93
2022/11/12 08:23:16;;;;;;;24.00;22.17;;;;;;;9.44;60.24;102998.84;5066349;28;20076;-89
2022/11/12 08:25:41;;;;;;;25.48;23.45;;;;;;;9.58;59.95;103009.91;5034150;28;20397;-74
2022/11/12 08:28:07;;;;;;;27.52;25.55;;;;;;;9.73;59.33;103008.09;5040654;28;20041;-74
2022/11/12 08:30:34;;;;;;;25.83;23.77;;;;;;;9.82;59.00;103011.56;5037656;28;20849;-76
2022/11/12 08:33:03;;;;;;;24.58;22.55;;;;;;;9.88;58.65;103008.13;5062808;28;20042;-74
2022/11/12 08:35:28;;;;;;;;;;;;;;;9.90;58.48;103006.94;5032802;28;20053;-74
2022/11/12 08:38:02;;;;;;;24.33;22.73;;;;;;;9.93;58.61;103013.81;5033208;28;20262;-74
2022/11/12 08:40:30;;;;;;;25.02;23.13;;;;;;;9.93;58.19;103006.56;5032984;28;20437;-74
2022/11/12 08:43:05;;;;;;;23.70;21.92;;;;;;;9.95;58.01;103009.94;5056160;28;20128;-74
2022/11/12 08:45:33;;;;;;;26.52;24.40;;;;;;;9.96;58.05;103010.75;5034184;28;20119;-74
2022/11/12 08:48:00;;;;;;;25.13;23.45;;;;;;;9.96;58.21;103018.84;5032839;28;20152;-74
2022/11/12 08:50:27;;;;;;;24.70;22.92;;;;;;;9.96;58.15;103017.00;5032263;28;20029;-75
2022/11/12 08:52:52;;;;;;;23.48;21.75;;;;;;;9.97;58.23;103010.56;5043961;28;20030;-75
2022/11/12 08:55:17;;;;;;;22.80;21.15;;;;;;;9.98;58.12;103016.81;5038848;28;20500;-77
2022/11/12 08:57:43;;;;;;;23.00;21.33;;;;;;;9.97;58.04;103005.16;5040994;28;20238;-75
2022/11/12 09:00:10;;;;;;;24.83;22.75;;;;;;;9.97;58.26;103002.44;5051051;28;20025;-74
2022/11/12 09:02:35;;;;;;;23.25;21.63;;;;;;;9.97;58.24;102996.22;5045170;28;20117;-74
2022/11/12 09:05:01;;;;;;;25.77;23.85;;;;;;;9.97;58.10;103007.03;5032613;28;20718;-75
2022/11/12 09:07:26;;;;;;;24.25;22.35;;;;;;;9.96;58.21;102999.97;5041324;28;20493;-75
2022/11/12 09:09:51;;;;;;;23.75;22.15;;;;;;;9.96;58.16;103003.50;5042203;28;20041;-74
2022/11/12 09:12:18;;;;;;;25.00;22.77;;;;;;;9.96;58.17;103006.19;5050934;28;20427;-75
2022/11/12 09:14:44;;;;;;;24.05;22.33;;;;;;;9.95;58.44;103001.81;5049737;28;20035;-75
2022/11/12 09:17:11;;;;;;;23.92;22.25;;;;;;;9.95;58.25;103003.66;5051277;28;20150;-74
2022/11/12 09:19:36;;;;;;;23.55;21.75;;;;;;;9.95;57.95;103004.53;5050320;28;20041;-76
2022/11/12 09:22:02;;;;;;;22.13;20.58;;;;;;;9.96;58.28;103010.75;5052634;28;20036;-76
2022/11/12 09:24:27;;;;;;;24.77;23.02;;;;;;;9.95;58.25;103009.06;5050497;28;20060;-76
2022/11/12 09:26:53;;;;;;;23.83;22.05;;;;;;;9.95;58.29;103014.47;5049530;28;20484;-76
2022/11/12 09:29:18;;;;;;;23.05;21.20;;;;;;;9.94;58.35;103010.94;5050856;28;20029;-75
2022/11/12 09:31:44;;;;;;;23.00;21.30;;;;;;;9.94;58.34;103013.63;5033407;28;20571;-76
2022/11/12 09:34:09;;;;;;;23.95;22.15;;;;;;;9.94;58.19;103016.31;5044204;28;20033;-76
2022/11/12 09:36:35;;;;;;;24.88;23.08;;;;;;;9.94;58.28;103018.19;5039185;28;20040;-76
2022/11/12 09:39:00;;;;;;;23.70;22.02;;;;;;;9.93;58.38;103006.56;5037262;28;20370;-75
2022/11/12 09:41:28;;;;;;;24.50;22.75;;;;;;;9.94;58.28;103010.94;5026128;28;20040;-76
2022/11/12 09:44:00;;;;;;;23.63;22.02;;;;;;;9.93;58.57;103001.16;5041364;28;20043;-75
2022/11/12 09:46:35;;;;;;;22.30;20.65;;;;;;;9.93;58.66;103006.56;5031017;28;20367;-76
2022/11/12 09:49:38;;;;;;;25.90;24.00;;;;;;;9.93;58.58;103017.34;5031869;28;20048;-76
2022/11/12 09:52:22;;;;;;;22.75;20.95;;;;;;;9.93;58.52;103006.56;5038075;28;20077;-75
2022/11/12 09:54:56;;;;;;;23.13;21.42;;;;;;;9.92;58.68;103002.16;5040043;28;20032;-76
2022/11/12 09:57:22;;;;;;;23.00;21.40;;;;;;;9.92;58.97;103010.25;5042886;28;20033;-76
2022/11/12 09:59:47;;;;;;;24.55;22.63;;;;;;;9.93;58.54;103005.72;5042523;28;20112;-76
2022/11/12 10:02:35;;;;;;;23.77;22.05;;;;;;;9.94;58.89;103002.00;5046711;28;20040;-75
2022/11/12 10:05:16;;;;;;;22.87;21.03;;;;;;;9.93;58.83;103003.88;5045693;28;20036;-76
2022/11/12 10:08:00;;;;;;;23.73;21.92;;;;;;;9.94;58.61;103010.94;5046766;28;20126;-76
2022/11/12 10:10:47;;;;;;;21.42;20.02;;;;;;;9.93;58.57;103008.44;5030131;28;20025;-74
2022/11/12 10:13:41;;;;;;;24.55;22.85;;;;;;;9.93;58.73;103011.13;5035937;28;20381;-75
2022/11/12 10:19:17;;;;;;;23.85;22.15;;;;;;;9.93;58.82;103016.53;5035244;28;20528;-75
2022/11/12 10:22:04;;;;;;;24.50;22.80;;;;;;;9.92;58.74;103004.88;5029663;28;20128;-75
2022/11/12 10:24:34;;;;;;;24.58;22.85;;;;;;;9.95;58.72;103009.06;5044469;28;20032;-75
2022/11/12 10:27:10;;;;;;;25.25;23.17;;;;;;;9.94;58.75;102997.44;5049124;28;20485;-75
2022/11/12 10:29:46;;;;;;;25.10;23.08;;;;;;;9.94;59.04;103008.22;5050734;28;20033;-73
2022/11/12 10:32:14;;;;;;;26.98;24.83;;;;;;;9.96;59.09;102991.84;5049931;28;20025;-74
2022/11/12 10:34:39;;;;;;;28.15;25.77;;;;;;;9.98;59.19;103000.63;5050301;28;20033;-74
2022/11/12 10:37:23;;;;;;;24.92;22.92;;;;;;;10.00;59.06;102998.53;5045957;28;20044;-75
2022/11/12 10:39:48;;;;;;;24.38;22.67;;;;;;;10.01;59.20;102997.53;5031903;28;20381;-74
2022/11/12 10:42:16;;;;;;;26.48;24.27;;;;;;;10.03;58.78;102995.50;5040227;28;20033;-74
2022/11/12 10:44:42;;;;;;;26.95;24.77;;;;;;;10.05;59.20;102990.72;5051950;28;20033;-74
2022/11/12 10:47:23;;;;;;;25.42;23.38;;;;;;;10.06;59.15;102991.59;5053561;28;20036;-74
2022/11/12 10:50:07;;;;;;;27.33;25.10;;;;;;;10.06;59.10;102989.72;5045543;28;20033;-75
2022/11/12 10:52:32;;;;;;;25.58;23.40;;;;;;;10.08;59.10;102987.69;5050923;28;20105;-74
2022/11/12 10:55:05;;;;;;;26.45;24.35;;;;;;;10.09;59.15;102988.53;5051553;28;20033;-74
2022/11/12 10:57:31;;;;;;;24.10;21.92;;;;;;;10.09;59.21;102988.53;5050068;28;20497;-74
2022/11/12 11:00:07;;;;;;;23.92;22.05;;;;;;;10.10;59.17;102980.22;5047188;28;20037;-73
2022/11/12 11:02:33;;;;;;;25.92;23.58;;;;;;;10.11;59.17;102978.38;5059674;28;20082;-74
2022/11/12 11:04:59;;;;;;;24.77;22.67;;;;;;;10.12;59.10;102972.78;5063663;28;20037;-73
2022/11/12 11:07:25;;;;;;;24.05;22.10;;;;;;;10.13;59.10;102974.47;5051979;28;20033;-74
2022/11/12 11:09:53;;;;;;;25.30;23.45;;;;;;;10.13;59.28;102969.06;5049604;28;20055;-76
2022/11/12 11:12:30;;;;;;;25.63;23.48;;;;;;;10.15;59.24;102966.16;5048060;28;20061;-75
2022/11/12 11:15:14;;;;;;;25.13;22.95;;;;;;;10.16;59.31;102966.00;5054834;28;20024;-74
2022/11/12 11:17:39;;;;;;;25.48;23.27;;;;;;;10.17;59.39;102956.03;5052774;28;20120;-75
2022/11/12 11:20:32;;;;;;;25.45;23.45;;;;;;;10.18;59.35;102963.94;5050331;28;20025;-74
2022/11/12 11:23:18;;;;;;;23.38;21.67;;;;;;;10.19;59.41;102968.31;5048625;28;20130;-75
2022/11/12 11:25:46;;;;;;;26.77;24.30;;;;;;;10.21;59.41;102959.22;5046593;28;20113;-75
2022/11/12 11:28:15;;;;;;;24.45;22.67;;;;;;;10.23;59.47;102957.13;5048983;28;20028;-76
2022/11/12 11:31:16;;;;;;;26.70;24.30;;;;;;;10.24;59.44;102954.25;5057558;28;20033;-74
2022/11/12 11:34:07;;;;;;;26.65;24.50;;;;;;;10.26;59.25;102949.50;5049550;28;20033;-75
2022/11/12 11:37:01;;;;;;;25.20;22.98;;;;;;;10.26;59.31;102941.41;5045612;28;20453;-77
2022/11/12 11:39:55;;;;;;;25.00;22.58;;;;;;;10.28;59.54;102934.00;5045021;28;20030;-77
2022/11/12 11:42:21;;;;;;;24.92;22.83;;;;;;;10.29;59.43;102930.25;5060425;28;20041;-76
2022/11/12 11:44:49;;;;;;;25.10;23.10;;;;;;;10.31;59.46;102927.38;5057863;28;20444;-75